createdAt,value
2022-10-23T09:20:58.934Z,4.82
2022-10-23T09:23:27.516Z,4.68
2022-10-23T09:25:57.201Z,4.60
2022-10-23T09:28:28.703Z,3.70
2022-10-23T09:31:08.338Z,3.88
2022-10-23T09:33:37.454Z,3.88
2022-10-23T09:36:09.547Z,3.90
2022-10-23T09:38:40.454Z,4.50
2022-10-23T09:41:15.455Z,4.03
2022-10-23T09:43:44.150Z,4.43
2022-10-23T09:46:16.805Z,4.00
2022-10-23T09:48:45.667Z,3.75
2022-10-23T09:51:22.374Z,4.00
2022-10-23T09:53:53.060Z,4.10
2022-10-23T09:56:30.846Z,4.28
2022-10-23T09:59:04.710Z,4.25
2022-10-23T10:01:36.210Z,4.13
2022-10-23T10:04:05.416Z,4.20
2022-10-23T10:06:35.494Z,4.28
2022-10-23T10:09:09.496Z,4.03
2022-10-23T10:11:43.861Z,4.40
2022-10-23T10:14:46.274Z,4.57
2022-10-23T10:17:21.781Z,3.60
2022-10-23T10:20:16.551Z,3.90
2022-10-23T10:22:53.229Z,4.22
2022-10-23T10:25:25.840Z,3.90
2022-10-23T10:28:06.128Z,4.22
2022-10-23T10:30:45.011Z,4.32
2022-10-23T10:41:39.620Z,4.35
2022-10-23T10:44:25.928Z,3.88
2022-10-23T10:46:59.946Z,4.70
2022-10-23T10:49:47.320Z,4.22
2022-10-23T10:52:22.528Z,4.90
2022-10-23T10:54:59.815Z,4.97
2022-10-23T10:57:38.579Z,5.03
2022-10-23T11:00:15.877Z,4.45
2022-10-23T11:02:48.881Z,4.95
2022-10-23T11:05:25.861Z,5.32
2022-10-23T11:08:08.849Z,5.25
2022-10-23T11:10:41.681Z,5.50
2022-10-23T11:13:26.093Z,5.68
2022-10-23T11:16:02.416Z,5.53
2022-10-23T11:18:33.980Z,5.78
2022-10-23T11:21:13.223Z,5.85
2022-10-23T11:24:07.709Z,5.53
2022-10-23T11:26:47.072Z,6.13
2022-10-23T11:29:37.033Z,5.68
2022-10-23T11:32:23.693Z,5.82
2022-10-23T11:35:15.235Z,5.47
2022-10-23T11:37:43.895Z,6.30
2022-10-23T11:40:24.195Z,5.63
2022-10-23T11:42:55.986Z,4.85
2022-10-23T11:45:34.000Z,5.10
2022-10-23T11:48:04.950Z,4.70
2022-10-23T11:50:35.803Z,4.78
2022-10-23T11:53:15.087Z,5.03
2022-10-23T11:56:59.620Z,5.30
2022-10-23T11:59:31.848Z,5.13
2022-10-23T12:02:04.715Z,5.00
2022-10-23T12:04:46.862Z,5.00
2022-10-23T12:07:45.176Z,4.82
2022-10-23T12:10:24.881Z,5.15
2022-10-23T12:13:05.008Z,4.35
2022-10-23T12:15:37.104Z,4.30
2022-10-23T12:18:16.789Z,4.43
2022-10-23T12:21:03.945Z,4.03
2022-10-23T12:24:08.347Z,3.70
2022-10-23T12:33:46.894Z,4.07
2022-10-23T12:36:54.555Z,4.05
2022-10-23T12:39:50.172Z,3.35
2022-10-23T12:42:47.249Z,3.10
2022-10-23T12:45:37.863Z,3.25
2022-10-23T12:48:26.618Z,2.70
2022-10-23T12:50:57.351Z,2.72
2022-10-23T12:53:27.784Z,3.22
2022-10-23T12:56:02.250Z,2.60
2022-10-23T12:58:32.969Z,2.70
2022-10-23T13:01:03.410Z,2.92
2022-10-23T13:03:34.103Z,2.80
2022-10-23T13:06:04.364Z,2.80
2022-10-23T13:08:41.922Z,2.38
2022-10-23T13:11:15.998Z,2.78
2022-10-23T13:13:44.747Z,2.72
2022-10-23T13:16:28.050Z,2.60
2022-10-23T13:18:56.862Z,2.78
2022-10-23T13:21:28.616Z,3.38
2022-10-23T13:23:58.844Z,2.78
2022-10-23T13:26:34.485Z,2.80
2022-10-23T13:29:09.455Z,3.00
2022-10-23T13:31:40.984Z,2.67
2022-10-23T13:34:28.365Z,3.03
2022-10-23T13:37:03.039Z,2.75
2022-10-23T13:39:35.376Z,2.70
2022-10-23T13:42:13.693Z,2.55
2022-10-23T13:44:42.918Z,2.65
2022-10-23T13:47:14.222Z,3.10
2022-10-23T13:49:42.570Z,2.67
2022-10-23T13:52:13.225Z,3.00
2022-10-23T13:54:43.707Z,2.78
2022-10-23T13:59:53.767Z,2.92
2022-10-23T14:02:25.013Z,2.47
2022-10-23T14:04:53.549Z,3.10
2022-10-23T14:07:21.859Z,2.85
2022-10-23T14:09:51.584Z,2.80
2022-10-23T14:12:19.920Z,2.85
2022-10-23T14:14:52.885Z,2.70
2022-10-23T14:17:21.599Z,2.72
2022-10-23T14:19:50.233Z,3.30
2022-10-23T14:22:19.264Z,2.78
2022-10-23T14:24:47.514Z,2.80
2022-10-23T14:27:17.130Z,3.30
2022-10-23T14:29:45.587Z,2.95
2022-10-23T14:32:13.760Z,2.70
2022-10-23T14:34:43.747Z,2.95
2022-10-23T14:37:12.037Z,2.63
2022-10-23T14:39:40.211Z,3.00
2022-10-23T14:42:08.456Z,2.92
2022-10-23T14:47:07.916Z,2.97
2022-10-23T14:49:36.694Z,3.03
2022-10-23T14:52:05.609Z,3.20
2022-10-23T14:54:35.273Z,3.00
2022-10-23T14:57:03.817Z,3.35
2022-10-23T14:59:32.298Z,2.88
2022-10-23T15:02:02.126Z,3.15
2022-10-23T15:04:30.433Z,3.25
2022-10-23T15:06:58.736Z,3.00
2022-10-23T15:09:26.876Z,3.15
2022-10-23T15:11:55.149Z,3.10
2022-10-23T15:14:23.471Z,3.30
2022-10-23T15:16:51.646Z,3.28
2022-10-23T15:19:21.354Z,3.15
2022-10-23T15:21:49.769Z,3.50
2022-10-23T15:24:18.618Z,3.30
2022-10-23T15:26:47.068Z,3.08
2022-10-23T15:29:15.955Z,3.20
2022-10-23T15:31:46.559Z,3.55
2022-10-23T15:34:16.912Z,3.08
2022-10-23T15:36:47.903Z,3.45
2022-10-23T15:39:18.479Z,3.17
2022-10-23T15:41:47.286Z,3.13
2022-10-23T15:44:17.871Z,3.05
2022-10-23T15:46:46.235Z,3.25
2022-10-23T15:49:14.515Z,3.42
2022-10-23T15:51:43.472Z,3.35
2022-10-23T15:54:18.926Z,3.65
2022-10-23T15:56:49.259Z,3.20
2022-10-23T15:59:24.704Z,3.60
2022-10-23T16:01:53.557Z,3.33
2022-10-23T16:04:22.285Z,3.90
2022-10-23T16:06:50.776Z,3.58
2022-10-23T16:09:20.459Z,3.75
2022-10-23T16:11:48.618Z,3.30
2022-10-23T16:14:18.313Z,3.95
2022-10-23T16:16:46.863Z,3.80
2022-10-23T16:19:15.048Z,3.70
2022-10-23T16:21:43.934Z,3.47
2022-10-23T16:24:12.846Z,3.70
2022-10-23T16:26:42.678Z,3.17
2022-10-23T16:29:10.968Z,3.95
2022-10-23T16:31:40.470Z,4.05
2022-10-23T16:34:09.301Z,4.32
2022-10-23T16:36:39.932Z,4.03
2022-10-23T16:39:10.145Z,3.95
2022-10-23T16:41:39.070Z,3.88
2022-10-23T16:44:09.381Z,3.78
2022-10-23T16:46:39.607Z,4.25
2022-10-23T16:49:09.679Z,4.32
2022-10-23T16:51:38.527Z,3.83
2022-10-23T16:54:06.839Z,3.50
2022-10-23T16:56:34.978Z,3.75
2022-10-23T16:59:03.290Z,3.83
2022-10-23T17:01:34.127Z,4.00
2022-10-23T17:04:02.398Z,4.25
2022-10-23T17:06:33.274Z,4.75
2022-10-23T17:09:02.779Z,5.80
2022-10-23T17:11:33.088Z,4.72
2022-10-23T17:14:04.005Z,3.97
2022-10-23T17:16:36.403Z,3.35
2022-10-23T17:19:16.097Z,4.15
2022-10-23T17:21:55.554Z,5.40
2022-10-23T17:24:24.767Z,3.53
2022-10-23T17:26:54.091Z,3.70
2022-10-23T17:29:22.938Z,4.38
2022-10-23T17:31:52.740Z,5.03
2022-10-23T17:34:23.279Z,5.07
2022-10-23T17:36:53.451Z,4.80
2022-10-23T17:39:23.985Z,3.03
2022-10-23T17:41:52.784Z,2.25
2022-10-23T17:44:21.138Z,2.13
2022-10-23T17:46:53.899Z,1.90
2022-10-23T17:49:23.078Z,1.30
2022-10-23T17:51:53.112Z,1.90
2022-10-23T17:54:21.529Z,2.40
2022-10-23T17:56:49.785Z,1.88
2022-10-23T17:59:19.712Z,2.88
2022-10-23T18:01:49.076Z,2.58
2022-10-23T18:04:20.079Z,2.60
2022-10-23T18:06:50.687Z,2.10
2022-10-23T18:09:19.285Z,2.58
2022-10-23T18:11:48.758Z,2.33
2022-10-23T18:14:18.261Z,1.60
2022-10-23T18:16:46.891Z,2.10
2022-10-23T18:19:15.872Z,1.80
2022-10-23T18:21:45.797Z,1.42
2022-10-23T18:24:13.989Z,1.80
2022-10-23T18:26:43.038Z,1.83
2022-10-23T18:29:16.512Z,1.63
2022-10-23T18:31:48.713Z,3.60
2022-10-23T18:34:22.033Z,2.08
2022-10-23T18:36:53.189Z,1.88
2022-10-23T18:39:23.839Z,1.85
2022-10-23T18:41:54.272Z,1.63
2022-10-23T18:44:24.458Z,1.90
2022-10-23T18:46:53.380Z,1.70
2022-10-23T18:49:21.650Z,1.70
2022-10-23T18:51:54.652Z,1.63
2022-10-23T18:54:23.373Z,2.17
2022-10-23T18:56:52.031Z,2.15
2022-10-23T18:59:21.888Z,1.80
2022-10-23T19:01:51.179Z,1.65
2022-10-23T19:04:19.595Z,2.08
2022-10-23T19:06:49.426Z,2.00
2022-10-23T19:09:19.943Z,2.00
2022-10-23T19:11:48.468Z,1.83
2022-10-23T19:14:16.837Z,1.50
2022-10-23T19:16:56.054Z,1.80
2022-10-23T19:19:26.925Z,2.05
2022-10-23T19:21:56.499Z,1.85
2022-10-23T19:24:31.786Z,1.92
2022-10-23T19:27:02.587Z,1.60
2022-10-23T19:29:31.359Z,2.00
2022-10-23T19:31:59.950Z,2.10
2022-10-23T19:34:28.225Z,2.15
2022-10-23T19:36:56.523Z,1.85
2022-10-23T19:39:26.651Z,2.72
2022-10-23T19:41:55.428Z,2.13
2022-10-23T19:44:23.777Z,1.90
2022-10-23T19:46:52.255Z,2.00
2022-10-23T19:49:20.760Z,2.00
2022-10-23T19:51:51.465Z,1.73
2022-10-23T19:54:20.810Z,1.70
2022-10-23T19:56:50.823Z,1.65
2022-10-23T19:59:19.582Z,1.45
2022-10-23T20:01:49.383Z,1.60
2022-10-23T20:04:18.833Z,1.85
2022-10-23T20:06:47.316Z,1.70
2022-10-23T20:09:15.693Z,1.13
2022-10-23T20:11:45.504Z,1.42
2022-10-23T20:14:15.280Z,1.70
2022-10-23T20:16:46.054Z,1.73
2022-10-23T20:21:48.651Z,1.85
2022-10-23T20:24:18.958Z,2.17
2022-10-23T20:26:51.743Z,1.98
2022-10-23T20:29:21.676Z,1.80
2022-10-23T20:31:50.212Z,2.05
2022-10-23T20:34:19.178Z,2.25
2022-10-23T20:36:49.845Z,1.80
2022-10-23T20:39:21.060Z,2.00
2022-10-23T20:41:49.359Z,2.10
2022-10-23T20:44:20.376Z,2.22
2022-10-23T20:46:48.928Z,2.00
2022-10-23T20:49:17.818Z,1.60
2022-10-23T20:51:46.356Z,2.00
2022-10-23T20:54:14.599Z,2.17
2022-10-23T20:56:42.758Z,2.10
2022-10-23T20:59:13.890Z,2.30
2022-10-23T21:01:44.788Z,2.80
2022-10-23T21:04:14.238Z,2.85
2022-10-23T21:07:04.414Z,2.70
2022-10-23T21:09:31.811Z,2.40
2022-10-23T21:11:59.986Z,2.85
2022-10-23T21:14:28.725Z,2.60
2022-10-23T21:16:58.765Z,2.53
2022-10-23T21:19:26.951Z,2.90
2022-10-23T21:21:55.552Z,2.88
2022-10-23T21:24:24.271Z,3.65
2022-10-23T21:26:52.409Z,3.60
2022-10-23T21:29:21.015Z,3.20
2022-10-23T21:31:54.762Z,2.72
2022-10-23T21:37:11.809Z,3.10
2022-10-23T21:39:41.266Z,3.20
2022-10-23T21:42:09.948Z,3.70
2022-10-23T21:44:38.320Z,4.32
2022-10-23T21:47:06.789Z,3.90
2022-10-23T21:49:36.514Z,4.15
2022-10-23T21:52:05.875Z,4.88
2022-10-23T21:54:34.598Z,4.95
2022-10-23T21:57:04.353Z,4.57
2022-10-23T21:59:35.471Z,4.20
2022-10-23T22:02:04.421Z,4.05
2022-10-23T22:04:32.872Z,3.90
2022-10-23T22:07:03.086Z,4.88
2022-10-23T22:09:32.245Z,3.83
2022-10-23T22:12:01.327Z,3.97
2022-10-23T22:14:29.738Z,4.20
2022-10-23T22:16:58.342Z,3.85
2022-10-23T22:19:26.805Z,3.88
2022-10-23T22:21:55.375Z,3.60
2022-10-23T22:24:25.958Z,3.30
2022-10-23T22:26:56.594Z,3.10
2022-10-23T22:29:26.868Z,2.60
2022-10-23T22:31:55.333Z,3.25
2022-10-23T22:34:34.922Z,2.75
2022-10-23T22:37:14.070Z,2.75
2022-10-23T22:39:43.888Z,2.58
2022-10-23T22:42:12.169Z,2.50
2022-10-23T22:44:40.543Z,2.53
2022-10-23T22:47:08.824Z,2.53
2022-10-23T22:49:37.673Z,2.70
2022-10-23T22:52:06.408Z,2.03
2022-10-23T22:54:34.769Z,2.30
2022-10-23T22:57:04.431Z,2.10
2022-10-23T22:59:32.973Z,1.90
2022-10-23T23:02:01.142Z,1.85
2022-10-23T23:04:38.298Z,1.75
2022-10-23T23:07:08.657Z,1.80
2022-10-23T23:09:38.724Z,1.40
2022-10-23T23:12:10.743Z,1.52
2022-10-23T23:14:39.269Z,1.33
2022-10-23T23:17:08.514Z,1.42
2022-10-23T23:19:37.727Z,1.30
2022-10-23T23:22:06.296Z,1.65
2022-10-23T23:24:34.763Z,1.30
2022-10-23T23:27:03.116Z,1.38
2022-10-23T23:29:32.983Z,1.60
2022-10-23T23:32:01.762Z,1.50
2022-10-23T23:34:30.450Z,1.63
2022-10-23T23:36:58.818Z,1.80
2022-10-23T23:39:28.610Z,1.95
2022-10-23T23:41:57.540Z,2.00
2022-10-23T23:44:25.678Z,2.05
2022-10-23T23:46:55.931Z,2.08
2022-10-23T23:49:24.301Z,2.25
2022-10-23T23:51:53.709Z,2.40
2022-10-23T23:54:22.265Z,2.03
2022-10-23T23:56:50.663Z,2.08
2022-10-23T23:59:18.943Z,2.30
